Terminal Aerodrome Forecast
Issued by NWS Hastings, NE

Home | Current Version | Previous Version | Text Only | Print | Product List | Glossary On
Versions: 1 2 3 4 5 6 7 8 9 10 11 12
000
FTUS45 KGID 262236 AAB
TAFEAR
TAF AMD
KEAR 262236Z 2623/2718 35015G20KT 3/4SM -SN SCT005 OVC010
     FM270300 36013KT 5SM -SN SCT005 OVC015
     FM270700 33011KT P6SM BKN030
     FM271500 30008KT P6SM SCT070
      AMD LTD TO CLD VIS AND WIND=

USA.gov is the U.S. government's official web portal to all federal, state and local government web resources and services.